createdAt,value
2022-08-18T00:00:06.270Z,31.83
2022-08-18T00:02:43.432Z,32.30
2022-08-18T00:05:16.473Z,33.37
2022-08-18T00:07:47.100Z,33.37
2022-08-18T00:10:18.777Z,25.30
2022-08-18T00:12:46.010Z,21.30
2022-08-18T00:15:16.806Z,19.80
2022-08-18T00:17:43.923Z,21.23
2022-08-18T00:20:22.013Z,22.00
2022-08-18T00:22:50.208Z,22.13
2022-08-18T00:25:19.785Z,23.50
2022-08-18T00:27:46.906Z,23.27
2022-08-18T00:30:20.209Z,23.33
2022-08-18T00:32:57.792Z,25.43
2022-08-18T00:35:32.832Z,24.03
2022-08-18T00:38:04.088Z,25.83
2022-08-18T00:40:38.594Z,25.47
2022-08-18T00:43:13.664Z,27.70
2022-08-18T00:45:43.498Z,28.97
2022-08-18T00:48:15.214Z,26.77
2022-08-18T00:50:51.621Z,27.20
2022-08-18T00:53:27.661Z,28.70
2022-08-18T00:56:05.049Z,27.93
2022-08-18T00:58:41.348Z,29.93
2022-08-18T01:01:12.746Z,32.53
2022-08-18T01:03:43.874Z,33.47
2022-08-18T01:06:23.964Z,32.90
2022-08-18T01:08:51.214Z,33.03
2022-08-18T01:11:18.127Z,36.80
2022-08-18T01:13:45.648Z,37.30
2022-08-18T01:16:31.050Z,38.63
2022-08-18T01:19:16.669Z,38.97
2022-08-18T01:21:51.087Z,40.37
2022-08-18T01:24:52.327Z,43.73
2022-08-18T01:27:19.704Z,44.83
2022-08-18T01:29:50.128Z,44.03
2022-08-18T01:32:21.924Z,41.10
2022-08-18T01:34:51.914Z,40.23
2022-08-18T01:37:24.445Z,38.30
2022-08-18T01:41:25.075Z,35.37
2022-08-18T01:42:39.786Z,36.60
2022-08-18T01:45:08.242Z,33.33
2022-08-18T01:47:48.313Z,35.40
2022-08-18T01:50:16.077Z,34.57
2022-08-18T01:52:43.604Z,31.03
2022-08-18T01:55:10.810Z,30.37
2022-08-18T01:57:42.932Z,33.03
2022-08-18T02:00:17.090Z,33.70
2022-08-18T02:02:44.212Z,32.93
2022-08-18T02:05:18.293Z,33.33
2022-08-18T02:07:45.201Z,33.03
2022-08-18T02:10:16.592Z,33.93
2022-08-18T02:12:44.050Z,40.03
2022-08-18T02:15:12.564Z,36.43
2022-08-18T02:17:42.816Z,39.20
2022-08-18T02:20:15.070Z,38.73
2022-08-18T02:22:42.939Z,38.00
2022-08-18T02:25:12.057Z,40.73
2022-08-18T02:27:39.076Z,39.40
2022-08-18T02:30:10.948Z,36.97
2022-08-18T02:32:38.244Z,36.70
2022-08-18T02:35:09.441Z,35.87
2022-08-18T02:37:42.046Z,37.37
2022-08-18T02:40:14.849Z,32.17
2022-08-18T02:42:43.383Z,34.63
2022-08-18T02:45:12.736Z,32.50
2022-08-18T02:47:40.748Z,32.63
2022-08-18T02:50:10.934Z,30.20
2022-08-18T02:52:40.337Z,29.80
2022-08-18T02:55:08.175Z,31.43
2022-08-18T02:57:35.011Z,29.70
2022-08-18T03:00:02.336Z,30.97
2022-08-18T03:02:29.173Z,32.20
2022-08-18T03:04:55.957Z,31.03
2022-08-18T03:07:22.832Z,29.50
2022-08-18T03:09:49.737Z,33.00
2022-08-18T03:12:16.605Z,34.80
2022-08-18T03:14:43.574Z,33.07
2022-08-18T03:17:10.731Z,30.03
2022-08-18T03:19:38.694Z,32.53
2022-08-18T03:22:27.559Z,32.30
2022-08-18T03:24:56.479Z,30.63
2022-08-18T03:27:23.271Z,31.70
2022-08-18T03:29:51.370Z,29.90
2022-08-18T03:32:18.827Z,29.33
2022-08-18T03:34:45.698Z,30.77
2022-08-18T03:37:12.750Z,29.50
2022-08-18T03:39:40.812Z,26.67
2022-08-18T03:42:08.169Z,30.37
2022-08-18T03:44:39.310Z,30.87
2022-08-18T03:47:10.838Z,30.40
2022-08-18T03:49:38.633Z,29.20
2022-08-18T03:52:10.999Z,33.07
2022-08-18T03:54:39.133Z,30.57
2022-08-18T03:57:09.940Z,31.40
2022-08-18T03:59:37.356Z,29.17
2022-08-18T04:02:05.464Z,28.47
2022-08-18T04:04:32.397Z,30.70
2022-08-18T04:07:06.104Z,30.10
2022-08-18T04:09:35.910Z,29.63
2022-08-18T04:12:17.006Z,32.27
2022-08-18T04:14:49.479Z,30.77
2022-08-18T04:17:24.962Z,33.07
2022-08-18T04:19:55.133Z,34.07
2022-08-18T04:22:23.794Z,41.03
2022-08-18T04:24:51.193Z,39.60
2022-08-18T04:27:21.146Z,47.23
2022-08-18T04:29:48.873Z,51.63
2022-08-18T04:32:16.643Z,60.63
2022-08-18T04:34:43.610Z,59.73
2022-08-18T04:37:10.946Z,61.73
2022-08-18T04:39:38.245Z,67.13
2022-08-18T04:42:05.877Z,68.77
2022-08-18T04:44:33.781Z,66.10
2022-08-18T04:47:02.057Z,58.40
2022-08-18T04:49:30.215Z,65.57
2022-08-18T04:52:30.880Z,71.57
2022-08-18T04:55:03.786Z,63.33
2022-08-18T04:57:34.033Z,69.73
2022-08-18T05:00:04.844Z,72.30
2022-08-18T05:02:33.040Z,77.47
2022-08-18T05:05:01.517Z,71.70
2022-08-18T05:07:30.390Z,71.43
2022-08-18T05:09:57.397Z,74.20
2022-08-18T05:12:25.933Z,75.97
2022-08-18T05:14:56.741Z,71.67
2022-08-18T05:17:29.975Z,70.77
2022-08-18T05:19:59.881Z,74.73
2022-08-18T05:22:31.212Z,76.33
2022-08-18T05:24:59.960Z,78.83
2022-08-18T05:27:32.967Z,78.73
2022-08-18T05:29:59.860Z,82.17
2022-08-18T05:32:37.310Z,77.67
2022-08-18T05:35:25.338Z,78.43
2022-08-18T05:38:17.109Z,80.67
2022-08-18T05:40:46.098Z,79.17
2022-08-18T05:43:15.393Z,78.03
2022-08-18T05:45:44.113Z,83.37
2022-08-18T05:48:10.969Z,87.57
2022-08-18T05:50:38.234Z,87.37
2022-08-18T05:53:14.081Z,84.10
2022-08-18T05:56:19.886Z,75.57
2022-08-18T05:58:55.431Z,79.37
2022-08-18T06:01:38.614Z,81.37
2022-08-18T06:04:29.614Z,84.40
2022-08-18T06:06:58.046Z,78.80
2022-08-18T06:09:38.622Z,80.67
2022-08-18T06:12:19.327Z,87.43
2022-08-18T06:14:46.470Z,83.97
2022-08-18T06:17:43.788Z,81.67
2022-08-18T06:20:42.848Z,77.63
2022-08-18T06:23:34.433Z,68.37
2022-08-18T06:26:26.681Z,68.10
2022-08-18T06:29:12.358Z,65.20
2022-08-18T06:31:51.452Z,63.30
2022-08-18T06:35:18.459Z,63.97
2022-08-18T06:38:46.411Z,61.23
2022-08-18T06:41:40.772Z,60.63
2022-08-18T06:44:19.760Z,61.13
2022-08-18T06:47:20.874Z,57.97
2022-08-18T06:49:55.495Z,58.47
2022-08-18T06:52:33.853Z,56.83
2022-08-18T06:55:17.462Z,63.83
2022-08-18T06:57:58.228Z,58.93
2022-08-18T07:00:32.662Z,56.30
2022-08-18T07:03:18.010Z,53.83
2022-08-18T07:06:06.393Z,56.77
2022-08-18T07:08:43.059Z,55.43
2022-08-18T07:11:17.881Z,56.63
2022-08-18T07:14:03.409Z,56.70
2022-08-18T07:16:57.174Z,52.10
2022-08-18T07:19:30.355Z,54.37
2022-08-18T07:22:11.361Z,50.53
2022-08-18T07:24:48.500Z,50.87
2022-08-18T07:27:49.115Z,52.03
2022-08-18T07:30:36.080Z,43.07
2022-08-18T07:33:21.292Z,36.47
2022-08-18T07:35:54.102Z,38.03
2022-08-18T07:38:58.494Z,34.97
2022-08-18T07:41:39.121Z,35.67
2022-08-18T07:44:26.582Z,39.07
2022-08-18T07:47:07.315Z,41.80
2022-08-18T07:49:50.193Z,41.30
2022-08-18T07:52:47.230Z,44.70
2022-08-18T07:55:35.644Z,41.87
2022-08-18T07:58:22.878Z,39.83
2022-08-18T08:01:27.877Z,38.73
2022-08-18T08:04:25.275Z,36.13
2022-08-18T08:07:30.826Z,37.43
2022-08-18T08:10:37.621Z,40.27
2022-08-18T08:13:53.935Z,40.57
2022-08-18T08:16:51.264Z,39.03
2022-08-18T08:19:59.633Z,41.23
2022-08-18T08:22:31.061Z,39.17
2022-08-18T08:25:45.930Z,43.73
2022-08-18T08:28:55.154Z,42.33
2022-08-18T08:31:50.887Z,40.27
2022-08-18T08:34:40.059Z,41.43
2022-08-18T08:37:15.835Z,44.77
2022-08-18T08:39:54.164Z,39.07
2022-08-18T08:42:45.829Z,42.75
2022-08-18T08:45:27.315Z,42.05
2022-08-18T08:48:24.429Z,40.67
2022-08-18T08:51:03.675Z,37.78
2022-08-18T08:53:41.756Z,39.55
2022-08-18T08:56:16.488Z,38.50
2022-08-18T08:59:02.380Z,40.45
2022-08-18T09:02:08.767Z,41.72
2022-08-18T09:05:09.639Z,38.65
2022-08-18T09:08:14.234Z,38.47
2022-08-18T09:10:59.515Z,39.35
2022-08-18T09:13:56.041Z,38.72
2022-08-18T09:16:52.863Z,38.17
2022-08-18T09:19:58.730Z,37.80
2022-08-18T09:22:55.907Z,36.72
2022-08-18T09:25:38.206Z,37.55
2022-08-18T09:28:13.821Z,37.47
2022-08-18T09:30:54.587Z,37.28
2022-08-18T09:33:48.424Z,36.45
2022-08-18T09:36:37.869Z,38.70
2022-08-18T09:39:56.572Z,38.13
2022-08-18T09:42:56.309Z,36.78
2022-08-18T09:45:35.457Z,36.53
2022-08-18T09:48:28.104Z,38.58
2022-08-18T09:51:19.306Z,37.42
2022-08-18T09:53:46.274Z,36.60
2022-08-18T09:56:53.590Z,37.33
2022-08-18T09:59:36.754Z,37.00
2022-08-18T10:02:28.578Z,35.95
2022-08-18T10:05:17.353Z,34.35
2022-08-18T10:07:54.356Z,35.10
2022-08-18T10:11:01.504Z,34.47
2022-08-18T10:14:06.485Z,33.53
2022-08-18T10:17:23.856Z,32.80
2022-08-18T10:20:26.823Z,32.80
2022-08-18T10:22:57.409Z,33.90
2022-08-18T10:25:38.486Z,33.65
2022-08-18T10:28:10.550Z,32.95
2022-08-18T10:34:19.155Z,32.83
2022-08-18T10:36:51.952Z,33.58
2022-08-18T10:39:47.096Z,32.40
2022-08-18T10:46:51.863Z,33.90
2022-08-18T10:49:29.948Z,30.75
2022-08-18T10:53:24.218Z,32.15
2022-08-18T10:56:27.424Z,32.65
2022-08-18T10:59:07.828Z,31.77
2022-08-18T11:01:59.519Z,31.50
2022-08-18T11:04:44.167Z,30.67
2022-08-18T11:10:58.001Z,29.13
2022-08-18T11:13:56.913Z,28.48
2022-08-18T11:17:24.140Z,26.05
2022-08-18T11:19:54.715Z,28.25
2022-08-18T11:22:34.413Z,28.80
2022-08-18T11:25:19.501Z,28.38
2022-08-18T11:27:51.289Z,28.98
2022-08-18T11:30:21.321Z,26.10
2022-08-18T11:33:02.948Z,23.85
2022-08-18T11:35:48.296Z,23.27
2022-08-18T11:38:21.041Z,20.92
2022-08-18T11:41:11.243Z,22.02
2022-08-18T11:43:46.582Z,22.77
2022-08-18T11:46:30.400Z,23.20
2022-08-18T11:49:01.709Z,22.17
2022-08-18T11:51:33.208Z,20.20
2022-08-18T11:54:13.864Z,21.02
2022-08-18T11:56:40.831Z,21.65
2022-08-18T11:59:53.956Z,22.23
2022-08-18T12:02:24.236Z,21.73
2022-08-18T12:05:03.486Z,21.05
2022-08-18T12:07:57.570Z,20.65
2022-08-18T12:10:29.645Z,21.00
2022-08-18T12:13:00.622Z,21.17
2022-08-18T12:15:44.110Z,27.98
2022-08-18T12:18:26.149Z,25.92
2022-08-18T12:20:58.951Z,27.50
2022-08-18T12:23:26.118Z,24.00
2022-08-18T12:25:53.076Z,24.55
2022-08-18T12:28:22.283Z,24.98
2022-08-18T12:30:57.012Z,23.88
2022-08-18T12:33:25.436Z,24.98
2022-08-18T12:35:54.721Z,25.17
2022-08-18T12:38:23.430Z,23.42
2022-08-18T12:40:51.050Z,22.90
2022-08-18T12:43:18.952Z,22.80
2022-08-18T12:45:47.463Z,20.88
2022-08-18T12:48:14.714Z,21.17
2022-08-18T12:50:54.696Z,21.13
2022-08-18T12:53:29.993Z,21.60
2022-08-18T12:56:19.720Z,21.73
2022-08-18T12:58:47.660Z,22.48
2022-08-18T13:01:25.015Z,24.13
2022-08-18T13:04:13.317Z,23.30
2022-08-18T13:07:04.791Z,21.45
2022-08-18T13:09:52.592Z,21.17
2022-08-18T13:12:22.453Z,18.60
2022-08-18T13:14:58.007Z,18.35
2022-08-18T13:17:30.076Z,18.08
2022-08-18T13:20:13.822Z,19.80
2022-08-18T13:22:41.796Z,17.67
2022-08-18T13:25:32.761Z,15.95
2022-08-18T13:28:01.898Z,15.65
2022-08-18T13:30:32.143Z,18.63
2022-08-18T13:33:02.703Z,14.23
2022-08-18T13:35:38.311Z,13.82
2022-08-18T13:38:20.791Z,13.75
2022-08-18T13:40:55.623Z,15.70
2022-08-18T13:43:32.048Z,15.05
2022-08-18T13:45:59.862Z,13.88
2022-08-18T13:48:29.775Z,14.48
2022-08-18T13:51:00.982Z,14.95
2022-08-18T13:53:31.324Z,14.27
2022-08-18T13:55:59.463Z,12.98
2022-08-18T13:58:29.129Z,12.18
2022-08-18T14:03:48.204Z,14.85
2022-08-18T14:06:22.468Z,15.20
2022-08-18T14:08:50.683Z,13.60
2022-08-18T14:11:18.691Z,11.63
2022-08-18T14:13:46.896Z,11.13
2022-08-18T14:16:18.926Z,10.95
2022-08-18T14:19:09.923Z,12.93
2022-08-18T14:22:01.787Z,12.48
2022-08-18T14:24:49.517Z,11.50
2022-08-18T14:27:18.424Z,13.80
2022-08-18T14:29:48.571Z,14.07
2022-08-18T14:32:28.432Z,13.20
2022-08-18T14:35:31.908Z,12.15
2022-08-18T14:37:49.437Z,11.55
2022-08-18T14:40:19.919Z,10.30
2022-08-18T14:42:55.068Z,8.80
2022-08-18T14:45:31.672Z,8.95
2022-08-18T14:48:07.443Z,7.88
2022-08-18T14:50:44.693Z,9.07
2022-08-18T14:53:20.078Z,8.48
2022-08-18T14:55:52.589Z,12.13
2022-08-18T14:58:28.662Z,8.82
2022-08-18T15:00:59.221Z,10.73
2022-08-18T15:03:31.613Z,7.30
2022-08-18T15:06:04.858Z,7.22
2022-08-18T15:08:37.857Z,7.15
2022-08-18T15:11:11.299Z,8.95
2022-08-18T15:13:43.377Z,7.47
2022-08-18T15:16:11.562Z,8.18
2022-08-18T15:18:38.398Z,8.15
2022-08-18T15:21:38.321Z,11.30
2022-08-18T15:24:26.306Z,11.93
2022-08-18T15:27:03.286Z,9.02
2022-08-18T15:29:34.269Z,9.35
2022-08-18T15:32:06.089Z,8.98
2022-08-18T15:34:47.085Z,8.48
2022-08-18T15:37:20.367Z,9.10
2022-08-18T15:40:02.933Z,11.85
2022-08-18T15:42:30.209Z,9.27
2022-08-18T15:45:12.097Z,9.38
2022-08-18T15:47:41.358Z,11.88
2022-08-18T15:50:21.881Z,7.82
2022-08-18T15:53:00.604Z,8.02
2022-08-18T15:55:36.059Z,7.72
2022-08-18T15:58:11.108Z,10.02
2022-08-18T16:00:45.518Z,7.85
2022-08-18T16:03:14.841Z,8.05
2022-08-18T16:05:56.658Z,9.07
2022-08-18T16:08:25.783Z,9.30
2022-08-18T16:10:54.469Z,12.32
2022-08-18T16:13:22.833Z,10.88
2022-08-18T16:15:50.422Z,8.23
2022-08-18T16:18:23.132Z,8.98
2022-08-18T16:20:50.603Z,8.20
2022-08-18T16:23:23.654Z,8.90
2022-08-18T16:25:50.614Z,7.90
2022-08-18T16:28:17.382Z,9.00
2022-08-18T16:30:46.682Z,8.07
2022-08-18T16:33:13.457Z,8.07
2022-08-18T16:35:40.359Z,8.30
2022-08-18T16:38:12.088Z,8.85
2022-08-18T16:40:40.281Z,7.80
2022-08-18T16:43:07.370Z,8.80
2022-08-18T16:45:37.242Z,8.82
2022-08-18T16:48:08.181Z,8.32
2022-08-18T16:50:37.636Z,8.75
2022-08-18T16:53:05.526Z,10.05
2022-08-18T16:55:32.475Z,8.55
2022-08-18T16:58:18.025Z,9.10
2022-08-18T17:01:03.181Z,14.80
2022-08-18T17:03:48.429Z,10.23
2022-08-18T17:06:18.791Z,9.57
2022-08-18T17:08:46.191Z,8.90
2022-08-18T17:11:18.904Z,9.30
2022-08-18T17:13:49.541Z,10.35
2022-08-18T17:16:19.818Z,8.35
2022-08-18T17:18:47.759Z,8.23
2022-08-18T17:21:20.060Z,8.25
2022-08-18T17:23:48.890Z,8.13
2022-08-18T17:27:19.194Z,7.75
2022-08-18T17:30:01.596Z,8.30
2022-08-18T17:32:52.004Z,8.32
2022-08-18T17:35:30.448Z,9.52
2022-08-18T17:38:09.186Z,8.50
2022-08-18T17:40:48.214Z,8.18
2022-08-18T17:43:22.914Z,7.45
2022-08-18T17:45:57.577Z,13.48
2022-08-18T17:48:40.848Z,10.75
2022-08-18T17:51:34.176Z,8.52
2022-08-18T17:54:23.512Z,8.05
2022-08-18T17:57:01.421Z,21.67
2022-08-18T17:59:52.038Z,13.18
2022-08-18T18:02:29.759Z,9.65
2022-08-18T18:05:07.131Z,12.02
2022-08-18T18:07:57.876Z,10.10
2022-08-18T18:11:04.455Z,8.38
2022-08-18T18:13:33.931Z,8.20
2022-08-18T18:16:24.864Z,9.18
2022-08-18T18:19:03.373Z,8.40
2022-08-18T18:21:53.396Z,8.98
2022-08-18T18:24:32.297Z,7.75
2022-08-18T18:27:00.081Z,8.93
2022-08-18T18:29:38.016Z,8.73
2022-08-18T18:32:27.732Z,8.40
2022-08-18T18:35:22.862Z,12.82
2022-08-18T18:38:23.054Z,9.93
2022-08-18T18:41:01.945Z,9.30
2022-08-18T18:43:45.948Z,9.13
2022-08-18T18:46:24.541Z,8.80
2022-08-18T18:49:05.789Z,10.05
2022-08-18T18:52:19.228Z,8.80
2022-08-18T18:55:03.428Z,8.20
2022-08-18T18:57:48.570Z,13.10
2022-08-18T19:00:41.962Z,31.27
2022-08-18T19:03:38.389Z,8.30
2022-08-18T19:06:32.547Z,8.02
2022-08-18T19:09:29.536Z,15.98
2022-08-18T19:12:20.812Z,8.63
2022-08-18T19:15:00.028Z,8.82
2022-08-18T19:17:38.811Z,14.40
2022-08-18T19:20:17.087Z,9.32
2022-08-18T19:23:11.069Z,8.23
2022-08-18T19:25:52.204Z,7.10
2022-08-18T19:28:34.325Z,7.45
2022-08-18T19:31:23.233Z,8.77
2022-08-18T19:34:08.525Z,8.07
2022-08-18T19:37:06.941Z,8.73
2022-08-18T19:39:42.690Z,9.05
2022-08-18T19:42:35.694Z,9.45
2022-08-18T19:45:29.849Z,9.07
2022-08-18T19:48:18.224Z,10.13
2022-08-18T19:50:58.045Z,11.23
2022-08-18T19:53:56.985Z,9.25
2022-08-18T19:56:36.580Z,9.35
2022-08-18T19:59:15.387Z,7.75
2022-08-18T20:01:45.495Z,9.02
2022-08-18T20:05:01.646Z,8.68
2022-08-18T20:08:06.600Z,9.25
2022-08-18T20:11:11.026Z,9.75
2022-08-18T20:13:44.643Z,10.15
2022-08-18T20:16:44.036Z,9.15
2022-08-18T20:19:43.360Z,9.55
2022-08-18T20:22:24.328Z,9.45
2022-08-18T20:25:08.786Z,9.55
2022-08-18T20:28:11.218Z,10.80
2022-08-18T20:31:06.721Z,9.57
2022-08-18T20:33:46.809Z,10.45
2022-08-18T20:36:36.676Z,9.90
2022-08-18T20:39:47.557Z,9.57
2022-08-18T20:42:24.576Z,9.60
2022-08-18T20:44:59.747Z,10.00
2022-08-18T20:48:12.969Z,10.23
2022-08-18T20:51:13.675Z,10.93
2022-08-18T20:54:13.381Z,10.38
2022-08-18T20:56:44.452Z,11.98
2022-08-18T20:59:21.631Z,11.57
2022-08-18T21:01:56.317Z,10.80
2022-08-18T21:04:46.486Z,10.82
2022-08-18T21:07:36.207Z,11.25
2022-08-18T21:10:21.628Z,11.23
2022-08-18T21:12:56.706Z,11.13
2022-08-18T21:15:35.537Z,10.75
2022-08-18T21:18:20.862Z,11.50
2022-08-18T21:20:51.212Z,11.35
2022-08-18T21:23:29.762Z,11.93
2022-08-18T21:26:09.994Z,11.00
2022-08-18T21:28:40.795Z,11.50
2022-08-18T21:31:42.676Z,11.63
2022-08-18T21:34:28.714Z,12.23
2022-08-18T21:36:58.192Z,12.45
2022-08-18T21:39:25.675Z,12.20
2022-08-18T21:41:56.850Z,12.75
2022-08-18T21:44:38.442Z,12.50
2022-08-18T21:47:17.671Z,11.57
2022-08-18T21:50:17.375Z,13.10
2022-08-18T21:53:01.639Z,12.43
2022-08-18T21:55:39.741Z,11.47
2022-08-18T21:58:16.715Z,11.60
2022-08-18T22:01:11.257Z,12.63
2022-08-18T22:04:06.997Z,11.17
2022-08-18T22:06:33.796Z,12.47
2022-08-18T22:09:28.468Z,11.67
2022-08-18T22:12:46.834Z,11.57
2022-08-18T22:15:25.838Z,11.67
2022-08-18T22:18:00.947Z,11.43
2022-08-18T22:20:50.578Z,11.97
2022-08-18T22:23:46.435Z,12.30
2022-08-18T22:26:28.778Z,14.13
2022-08-18T22:29:16.475Z,12.23
2022-08-18T22:31:48.262Z,12.33
2022-08-18T22:34:28.606Z,11.83
2022-08-18T22:37:03.572Z,11.32
2022-08-18T22:39:55.737Z,11.93
2022-08-18T22:42:27.709Z,13.27
2022-08-18T22:44:58.079Z,11.90
2022-08-18T22:47:29.324Z,13.13
2022-08-18T22:49:57.330Z,12.77
2022-08-18T22:52:40.479Z,13.37
2022-08-18T22:55:12.722Z,12.67
2022-08-18T22:57:42.799Z,12.40
2022-08-18T23:00:15.238Z,13.00
2022-08-18T23:02:43.708Z,12.80
2022-08-18T23:05:11.828Z,12.60
2022-08-18T23:07:38.799Z,12.10
2022-08-18T23:10:13.558Z,12.83
2022-08-18T23:12:46.795Z,13.07
2022-08-18T23:15:17.036Z,13.33
2022-08-18T23:17:44.389Z,13.03
2022-08-18T23:20:19.223Z,13.07
2022-08-18T23:22:47.883Z,13.57
2022-08-18T23:25:15.826Z,14.10
2022-08-18T23:27:43.079Z,13.57
2022-08-18T23:30:11.132Z,13.80
2022-08-18T23:32:38.063Z,14.13
2022-08-18T23:35:05.776Z,12.90
2022-08-18T23:37:32.635Z,14.57
2022-08-18T23:39:59.658Z,13.77
2022-08-18T23:42:26.715Z,13.77
2022-08-18T23:44:53.547Z,13.53
2022-08-18T23:47:20.784Z,14.27
2022-08-18T23:49:48.356Z,14.57
2022-08-18T23:52:15.379Z,14.10
2022-08-18T23:54:42.455Z,15.07
2022-08-18T23:57:09.317Z,14.57
2022-08-18T23:59:36.589Z,13.23
